createdAt,value
2023-03-08T00:01:26.676Z,99249.89
2023-03-08T00:03:57.270Z,99241.27
2023-03-08T00:06:25.604Z,99244.84
2023-03-08T00:08:58.208Z,99240.77
2023-03-08T00:11:28.381Z,99244.08
2023-03-08T00:13:57.068Z,99238.37
2023-03-08T00:16:25.617Z,99238.00
2023-03-08T00:18:53.927Z,99241.14
2023-03-08T00:21:22.073Z,99237.80
2023-03-08T00:23:54.311Z,99234.33
2023-03-08T00:26:22.773Z,99232.80
2023-03-08T00:28:51.571Z,99228.23
2023-03-08T00:31:22.315Z,99230.30
2023-03-08T00:33:54.832Z,99227.58
2023-03-08T00:36:25.982Z,99218.67
2023-03-08T00:38:54.104Z,99218.05
2023-03-08T00:41:22.346Z,99212.31
2023-03-08T00:43:50.838Z,99210.20
2023-03-08T00:46:18.942Z,99202.67
2023-03-08T00:48:47.873Z,99201.77
2023-03-08T00:51:17.820Z,99200.92
2023-03-08T00:53:46.471Z,99199.66
2023-03-08T00:56:14.606Z,99199.95
2023-03-08T00:58:42.815Z,99199.14
2023-03-08T01:01:16.916Z,99199.27
2023-03-08T01:03:45.808Z,99193.39
2023-03-08T01:06:14.934Z,99193.23
2023-03-08T01:08:44.933Z,99190.78
2023-03-08T01:11:24.582Z,99185.41
2023-03-08T01:13:54.137Z,99184.63
2023-03-08T01:16:28.033Z,99181.86
2023-03-08T01:18:57.604Z,99181.52
2023-03-08T01:21:26.142Z,99172.63
2023-03-08T01:23:54.477Z,99169.90
2023-03-08T01:26:24.371Z,99166.55
2023-03-08T01:28:56.635Z,99159.75
2023-03-08T01:31:26.252Z,99158.80
2023-03-08T01:33:56.888Z,99158.06
2023-03-08T01:36:26.001Z,99162.92
2023-03-08T01:38:55.702Z,99158.95
2023-03-08T01:41:25.890Z,99166.63
2023-03-08T01:43:53.959Z,99161.38
2023-03-08T01:46:36.202Z,99162.19
2023-03-08T01:49:31.854Z,99155.75
2023-03-08T01:52:04.867Z,99156.94
2023-03-08T01:54:46.337Z,99153.66
2023-03-08T01:57:20.762Z,99151.64
2023-03-08T01:59:51.353Z,99150.11
2023-03-08T02:02:23.084Z,99146.28
2023-03-08T02:04:51.175Z,99142.77
2023-03-08T02:07:21.463Z,99135.10
2023-03-08T02:09:51.239Z,99132.90
2023-03-08T02:12:19.278Z,99130.83
2023-03-08T02:14:47.747Z,99129.03
2023-03-08T02:17:15.947Z,99129.40
2023-03-08T02:19:55.894Z,99127.80
2023-03-08T02:22:24.548Z,99127.23
2023-03-08T02:24:52.931Z,99118.75
2023-03-08T02:27:23.577Z,99118.42
2023-03-08T02:29:52.219Z,99121.08
2023-03-08T02:32:21.861Z,99130.31
2023-03-08T02:34:50.127Z,99129.70
2023-03-08T02:37:18.177Z,99132.46
2023-03-08T02:39:47.721Z,99131.88
2023-03-08T02:42:16.264Z,99128.77
2023-03-08T02:44:44.327Z,99128.20
2023-03-08T02:47:12.884Z,99126.91
2023-03-08T02:49:40.929Z,99120.52
2023-03-08T02:52:10.003Z,99119.70
2023-03-08T02:54:38.139Z,99117.04
2023-03-08T02:57:07.652Z,99117.85
2023-03-08T02:59:36.467Z,99113.38
2023-03-08T03:02:08.300Z,99113.58
2023-03-08T03:04:37.695Z,99118.75
2023-03-08T03:07:05.800Z,99121.77
2023-03-08T03:09:36.004Z,99119.21
2023-03-08T03:12:04.516Z,99118.84
2023-03-08T03:14:37.412Z,99117.18
2023-03-08T03:17:05.508Z,99122.60
2023-03-08T03:19:33.730Z,99125.52
2023-03-08T03:22:07.802Z,99127.88
2023-03-08T03:24:37.652Z,99120.48
2023-03-08T03:27:07.312Z,99120.40
2023-03-08T03:29:37.850Z,99118.77
2023-03-08T03:32:14.996Z,99114.09
2023-03-08T03:34:44.439Z,99105.37
2023-03-08T03:37:13.086Z,99103.77
2023-03-08T03:39:41.819Z,99099.66
2023-03-08T03:42:11.964Z,99093.91
2023-03-08T03:44:43.750Z,99090.61
2023-03-08T03:47:15.199Z,99088.83
2023-03-08T03:49:43.617Z,99077.42
2023-03-08T03:52:13.142Z,99079.84
2023-03-08T03:54:45.980Z,99081.16
2023-03-08T03:57:14.226Z,99078.89
2023-03-08T03:59:43.019Z,99082.77
2023-03-08T04:02:14.625Z,99079.42
2023-03-08T04:04:49.738Z,99073.52
2023-03-08T04:07:19.062Z,99073.68
2023-03-08T04:09:54.654Z,99071.84
2023-03-08T04:12:22.715Z,99070.84
2023-03-08T04:14:51.310Z,99068.80
2023-03-08T04:17:20.703Z,99072.46
2023-03-08T04:19:52.779Z,99069.55
2023-03-08T04:22:26.174Z,99068.83
2023-03-08T04:24:58.937Z,99070.39
2023-03-08T04:27:32.847Z,99066.42
2023-03-08T04:30:02.293Z,99062.77
2023-03-08T04:32:34.504Z,99058.96
2023-03-08T04:35:03.121Z,99056.27
2023-03-08T04:37:31.939Z,99055.50
2023-03-08T04:40:09.405Z,99052.81
2023-03-08T04:42:43.378Z,99051.63
2023-03-08T04:45:11.991Z,99047.80
2023-03-08T04:47:40.853Z,99051.88
2023-03-08T04:50:09.931Z,99052.34
2023-03-08T04:52:38.078Z,99048.61
2023-03-08T04:55:06.699Z,99048.41
2023-03-08T04:57:35.537Z,99050.00
2023-03-08T05:00:05.930Z,99049.84
2023-03-08T05:02:37.330Z,99047.67
2023-03-08T05:05:07.062Z,99042.47
2023-03-08T05:07:38.750Z,99035.73
2023-03-08T05:10:07.409Z,99037.52
2023-03-08T05:12:35.878Z,99035.04
2023-03-08T05:15:05.200Z,99031.78
2023-03-08T05:17:33.595Z,99033.89
2023-03-08T05:20:02.124Z,99036.71
2023-03-08T05:22:48.097Z,99035.73
2023-03-08T05:25:23.573Z,99034.02
2023-03-08T05:27:52.362Z,99032.27
2023-03-08T05:30:21.580Z,99039.05
2023-03-08T05:32:50.391Z,99042.66
2023-03-08T05:35:18.533Z,99044.62
2023-03-08T05:37:47.531Z,99050.98
2023-03-08T05:40:16.570Z,99050.98
2023-03-08T05:42:45.101Z,99043.80
2023-03-08T05:45:14.770Z,99045.67
2023-03-08T05:47:43.077Z,99044.09
2023-03-08T05:50:12.345Z,99044.90
2023-03-08T05:52:43.042Z,99045.60
2023-03-08T05:55:14.241Z,99043.75
2023-03-08T05:57:42.662Z,99042.73
2023-03-08T06:00:11.879Z,99042.21
2023-03-08T06:02:52.122Z,99044.71
2023-03-08T06:05:20.917Z,99044.77
2023-03-08T06:07:49.239Z,99041.62
2023-03-08T06:10:17.696Z,99037.39
2023-03-08T06:12:49.087Z,99035.36
2023-03-08T06:15:17.837Z,99037.19
2023-03-08T06:17:48.962Z,99037.97
2023-03-08T06:20:19.612Z,99035.14
2023-03-08T06:22:49.968Z,99037.68
2023-03-08T06:25:19.906Z,99038.70
2023-03-08T06:27:49.364Z,99037.14
2023-03-08T06:30:35.410Z,99036.90
2023-03-08T06:33:05.652Z,99039.13
2023-03-08T06:35:34.002Z,99037.66
2023-03-08T06:38:03.127Z,99042.80
2023-03-08T06:40:32.831Z,99042.05
2023-03-08T06:43:01.645Z,99037.28
2023-03-08T06:45:29.786Z,99027.17
2023-03-08T06:47:58.269Z,99023.51
2023-03-08T06:50:26.812Z,99018.33
2023-03-08T06:52:55.132Z,99016.51
2023-03-08T06:55:35.871Z,99023.36
2023-03-08T06:58:04.298Z,99031.51
2023-03-08T07:00:35.119Z,99025.30
2023-03-08T07:03:03.310Z,99022.45
2023-03-08T07:05:31.677Z,99019.20
2023-03-08T07:08:01.573Z,99020.68
2023-03-08T07:10:30.252Z,99029.09
2023-03-08T07:13:00.700Z,99032.36
2023-03-08T07:15:28.811Z,99029.41
2023-03-08T07:17:58.708Z,99027.66
2023-03-08T07:20:27.698Z,99029.30
2023-03-08T07:22:55.984Z,99034.70
2023-03-08T07:25:24.127Z,99040.34
2023-03-08T07:28:00.228Z,99050.02
2023-03-08T07:30:28.674Z,99047.52
2023-03-08T07:32:56.948Z,99046.74
2023-03-08T07:35:27.776Z,99046.98
2023-03-08T07:37:56.255Z,99051.52
2023-03-08T07:40:24.400Z,99051.52
2023-03-08T07:42:52.332Z,99050.21
2023-03-08T07:45:29.910Z,99054.84
2023-03-08T07:47:58.706Z,99054.73
2023-03-08T07:50:26.865Z,99055.69
2023-03-08T07:52:56.364Z,99054.16
2023-03-08T07:55:25.676Z,99046.48
2023-03-08T07:57:56.887Z,99039.44
2023-03-08T08:00:25.710Z,99045.13
2023-03-08T08:02:54.199Z,99042.23
2023-03-08T08:05:23.272Z,99035.95
2023-03-08T08:07:51.256Z,99037.21
2023-03-08T08:10:21.457Z,99034.73
2023-03-08T08:12:50.638Z,99031.05
2023-03-08T08:15:19.261Z,99027.67
2023-03-08T08:17:52.575Z,99024.85
2023-03-08T08:20:21.220Z,99022.91
2023-03-08T08:22:52.102Z,99020.04
2023-03-08T08:25:21.156Z,99012.23
2023-03-08T08:27:50.749Z,99010.02
2023-03-08T08:30:19.446Z,99005.01
2023-03-08T08:32:47.638Z,99000.95
2023-03-08T08:35:16.406Z,98995.95
2023-03-08T08:37:44.879Z,98992.44
2023-03-08T08:40:13.246Z,98998.73
2023-03-08T08:42:41.454Z,99002.23
2023-03-08T08:45:10.188Z,98993.21
2023-03-08T08:47:38.348Z,98992.21
2023-03-08T08:50:07.089Z,98989.45
2023-03-08T08:52:35.328Z,98985.33
2023-03-08T08:55:06.633Z,98987.44
2023-03-08T08:57:35.372Z,98980.55
2023-03-08T09:00:08.277Z,98966.19
2023-03-08T09:02:36.826Z,98965.64
2023-03-08T09:05:06.141Z,98963.63
2023-03-08T09:07:34.338Z,98962.40
2023-03-08T09:10:02.680Z,98964.72
2023-03-08T09:12:31.201Z,98969.25
2023-03-08T09:14:59.887Z,98965.20
2023-03-08T09:17:28.151Z,98973.44
2023-03-08T09:19:56.625Z,98967.77
2023-03-08T09:22:25.533Z,98969.64
2023-03-08T09:24:53.508Z,98975.10
2023-03-08T09:27:21.617Z,98968.10
2023-03-08T09:29:50.676Z,98969.31
2023-03-08T09:32:18.873Z,98969.60
2023-03-08T09:34:47.519Z,98975.23
2023-03-08T09:37:15.718Z,98972.66
2023-03-08T09:39:44.983Z,98978.64
2023-03-08T09:42:25.172Z,98979.36
2023-03-08T09:45:14.447Z,98978.64
2023-03-08T09:48:11.147Z,98978.23
2023-03-08T09:50:59.349Z,98977.95
2023-03-08T09:53:38.511Z,98974.16
2023-03-08T09:56:12.353Z,98972.51
2023-03-08T09:58:55.933Z,98969.06
2023-03-08T10:01:38.543Z,98968.54
2023-03-08T10:04:29.097Z,98965.55
2023-03-08T10:07:17.573Z,98966.58
2023-03-08T10:09:53.074Z,98967.67
2023-03-08T10:12:49.982Z,98968.87
2023-03-08T10:15:25.066Z,98958.58
2023-03-08T10:18:21.233Z,98954.02
2023-03-08T10:20:49.723Z,98951.83
2023-03-08T10:23:21.689Z,98945.54
2023-03-08T10:25:50.441Z,98943.45
2023-03-08T10:28:20.854Z,98943.79
2023-03-08T10:31:28.156Z,98937.12
2023-03-08T10:34:03.999Z,98929.77
2023-03-08T10:36:34.888Z,98926.85
2023-03-08T10:39:09.759Z,98928.64
2023-03-08T10:41:43.552Z,98919.84
2023-03-08T10:44:14.378Z,98917.44
2023-03-08T10:46:47.666Z,98916.55
2023-03-08T10:49:17.557Z,98915.34
2023-03-08T10:52:01.223Z,98913.30
2023-03-08T10:54:30.061Z,98909.04
2023-03-08T10:56:59.607Z,98906.06
2023-03-08T10:59:32.656Z,98898.81
2023-03-08T11:02:13.419Z,98897.06
2023-03-08T11:04:53.615Z,98898.66
2023-03-08T11:07:29.431Z,98894.38
2023-03-08T11:10:13.045Z,98887.44
2023-03-08T11:12:41.709Z,98889.27
2023-03-08T11:15:16.562Z,98885.20
2023-03-08T11:17:56.436Z,98885.95
2023-03-08T11:21:07.878Z,98892.13
2023-03-08T11:24:08.800Z,98890.95
2023-03-08T11:27:14.769Z,98887.86
2023-03-08T11:29:52.530Z,98888.52
2023-03-08T11:32:45.078Z,98884.92
2023-03-08T11:35:28.122Z,98886.73
2023-03-08T11:38:00.153Z,98884.94
2023-03-08T11:40:40.349Z,98896.86
2023-03-08T11:43:30.579Z,98893.15
2023-03-08T11:46:23.239Z,98893.86
2023-03-08T11:49:01.255Z,98895.27
2023-03-08T11:51:51.593Z,98892.59
2023-03-08T11:54:38.550Z,98882.41
2023-03-08T11:57:12.581Z,98871.36
2023-03-08T11:59:50.640Z,98869.06
2023-03-08T12:02:20.988Z,98863.29
2023-03-08T12:05:12.440Z,98852.64
2023-03-08T12:07:48.597Z,98842.04
2023-03-08T12:10:51.085Z,98837.40
2023-03-08T12:13:29.742Z,98844.13
2023-03-08T12:16:04.736Z,98851.45
2023-03-08T12:18:34.511Z,98857.64
2023-03-08T12:21:35.756Z,98858.55
2023-03-08T12:24:32.453Z,98863.84
2023-03-08T12:27:06.609Z,98861.73
2023-03-08T12:30:15.594Z,98857.83
2023-03-08T12:32:43.869Z,98856.62
2023-03-08T12:35:22.327Z,98857.42
2023-03-08T12:37:59.561Z,98858.39
2023-03-08T12:40:44.363Z,98861.73
2023-03-08T12:43:34.299Z,98858.39
2023-03-08T12:46:06.668Z,98861.89
2023-03-08T12:48:40.562Z,98857.80
2023-03-08T12:51:14.674Z,98860.08
2023-03-08T12:53:44.162Z,98859.66
2023-03-08T12:56:12.488Z,98858.19
2023-03-08T12:58:56.572Z,98855.42
2023-03-08T13:01:24.823Z,98852.65
2023-03-08T13:03:54.208Z,98849.02
2023-03-08T13:06:22.876Z,98838.96
2023-03-08T13:08:54.378Z,98834.41
2023-03-08T13:11:26.522Z,98836.73
2023-03-08T13:13:58.653Z,98835.39
2023-03-08T13:16:30.112Z,98838.50
2023-03-08T13:19:21.651Z,98838.36
2023-03-08T13:22:16.335Z,98837.55
2023-03-08T13:24:49.844Z,98837.51
2023-03-08T13:27:47.797Z,98831.79
2023-03-08T13:30:36.992Z,98830.67
2023-03-08T13:33:13.438Z,98830.46
2023-03-08T13:35:41.442Z,98833.48
2023-03-08T13:38:20.326Z,98838.69
2023-03-08T13:40:52.793Z,98835.64
2023-03-08T13:43:25.056Z,98833.60
2023-03-08T13:45:54.947Z,98834.75
2023-03-08T13:48:23.128Z,98830.51
2023-03-08T13:50:51.842Z,98830.95
2023-03-08T13:53:22.463Z,98825.88
2023-03-08T13:55:57.196Z,98823.24
2023-03-08T13:58:35.696Z,98824.17
2023-03-08T14:01:18.979Z,98818.34
2023-03-08T14:03:47.560Z,98818.89
2023-03-08T14:06:33.761Z,98816.13
2023-03-08T14:09:03.930Z,98817.05
2023-03-08T14:11:34.139Z,98817.50
2023-03-08T14:14:07.528Z,98818.54
2023-03-08T14:16:37.751Z,98814.09
2023-03-08T14:19:15.031Z,98807.23
2023-03-08T14:21:55.408Z,98807.56
2023-03-08T14:24:34.625Z,98801.13
2023-03-08T14:27:30.644Z,98804.41
2023-03-08T14:30:04.088Z,98807.48
2023-03-08T14:32:32.618Z,98810.58
2023-03-08T14:35:25.248Z,98808.59
2023-03-08T14:37:56.979Z,98806.63
2023-03-08T14:40:31.088Z,98806.15
2023-03-08T14:43:02.417Z,98807.54
2023-03-08T14:45:40.484Z,98810.11
2023-03-08T14:48:25.139Z,98809.47
2023-03-08T14:50:55.823Z,98812.90
2023-03-08T14:53:31.173Z,98814.08
2023-03-08T14:56:00.474Z,98807.48
2023-03-08T14:58:31.142Z,98806.35
2023-03-08T15:01:01.386Z,98808.23
2023-03-08T15:03:30.353Z,98808.82
2023-03-08T15:05:59.248Z,98816.14
2023-03-08T15:08:28.862Z,98820.96
2023-03-08T15:10:57.185Z,98820.20
2023-03-08T15:13:27.244Z,98820.13
2023-03-08T15:15:55.870Z,98825.64
2023-03-08T15:18:24.982Z,98830.41
2023-03-08T15:20:53.157Z,98826.65
2023-03-08T15:23:26.223Z,98828.14
2023-03-08T15:25:54.639Z,98825.18
2023-03-08T15:28:23.718Z,98830.30
2023-03-08T15:30:52.899Z,98833.14
2023-03-08T15:33:21.686Z,98833.99
2023-03-08T15:35:50.573Z,98829.20
2023-03-08T15:38:19.008Z,98825.81
2023-03-08T15:40:52.282Z,98824.89
2023-03-08T15:43:20.878Z,98823.71
2023-03-08T15:45:48.865Z,98821.83
2023-03-08T15:48:18.243Z,98823.59
2023-03-08T15:50:46.678Z,98826.88
2023-03-08T15:53:29.665Z,98828.38
2023-03-08T15:56:03.160Z,98827.86
2023-03-08T15:58:31.767Z,98830.55
2023-03-08T16:01:00.589Z,98835.70
2023-03-08T16:03:31.200Z,98837.30
2023-03-08T16:05:59.732Z,98840.05
2023-03-08T16:08:29.445Z,98839.95
2023-03-08T16:11:03.791Z,98837.42
2023-03-08T16:13:34.548Z,98842.19
2023-03-08T16:16:03.568Z,98845.00
2023-03-08T16:18:32.241Z,98850.08
2023-03-08T16:21:00.732Z,98854.61
2023-03-08T16:23:29.110Z,98861.45
2023-03-08T16:26:14.777Z,98860.89
2023-03-08T16:28:46.569Z,98859.48
2023-03-08T16:31:15.105Z,98858.92
2023-03-08T16:33:43.634Z,98868.89
2023-03-08T16:36:12.449Z,98874.57
2023-03-08T16:38:43.404Z,98882.96
2023-03-08T16:41:13.493Z,98888.55
2023-03-08T16:43:48.300Z,98888.27
2023-03-08T16:46:19.156Z,98889.90
2023-03-08T16:48:49.761Z,98892.17
2023-03-08T16:51:20.386Z,98890.54
2023-03-08T16:53:49.077Z,98894.36
2023-03-08T16:56:26.870Z,98898.67
2023-03-08T16:58:56.985Z,98899.23
2023-03-08T17:01:26.749Z,98899.02
2023-03-08T17:03:56.101Z,98890.67
2023-03-08T17:06:27.036Z,98890.93
2023-03-08T17:08:57.488Z,98893.23
2023-03-08T17:11:27.486Z,98895.66
2023-03-08T17:13:58.652Z,98891.91
2023-03-08T17:16:28.356Z,98888.05
2023-03-08T17:18:56.635Z,98886.06
2023-03-08T17:21:24.784Z,98891.71
2023-03-08T17:23:53.608Z,98903.57
2023-03-08T17:26:22.535Z,98903.92
2023-03-08T17:28:52.177Z,98907.97
2023-03-08T17:31:21.614Z,98908.70
2023-03-08T17:33:50.759Z,98908.64
2023-03-08T17:36:22.506Z,98908.82
2023-03-08T17:38:55.538Z,98908.76
2023-03-08T17:41:25.901Z,98906.23
2023-03-08T17:43:54.155Z,98903.77
2023-03-08T17:46:23.699Z,98908.39
2023-03-08T17:48:53.303Z,98926.85
2023-03-08T17:51:24.378Z,98923.88
2023-03-08T17:53:52.736Z,98924.59
2023-03-08T17:56:22.756Z,98926.31
2023-03-08T17:58:54.588Z,98930.34
2023-03-08T18:01:24.399Z,98942.23
2023-03-08T18:03:53.059Z,98960.10
2023-03-08T18:06:38.011Z,98979.66
2023-03-08T18:09:10.674Z,98997.33
2023-03-08T18:11:38.824Z,99012.95
2023-03-08T18:14:16.837Z,99014.84
2023-03-08T18:16:45.038Z,99039.14
2023-03-08T18:19:15.658Z,99049.77
2023-03-08T18:21:43.827Z,99067.61
2023-03-08T18:24:12.142Z,99056.75
2023-03-08T18:26:41.400Z,99056.30
2023-03-08T18:29:09.516Z,99021.96
2023-03-08T18:31:40.329Z,99028.34
2023-03-08T18:34:09.291Z,99055.79
2023-03-08T18:36:37.591Z,99049.08
2023-03-08T18:39:07.060Z,99038.05
2023-03-08T18:41:36.149Z,99029.24
2023-03-08T18:44:10.671Z,99043.39
2023-03-08T18:46:39.524Z,99043.45
2023-03-08T18:49:11.143Z,99042.64
2023-03-08T18:51:40.268Z,99041.02
2023-03-08T18:54:20.494Z,99041.04
2023-03-08T18:56:53.903Z,99051.85
2023-03-08T18:59:22.151Z,99059.39
2023-03-08T19:01:52.257Z,99064.40
2023-03-08T19:04:20.436Z,99065.25
2023-03-08T19:06:48.403Z,99066.59
2023-03-08T19:09:17.255Z,99071.11
2023-03-08T19:11:45.986Z,99078.03
2023-03-08T19:14:14.292Z,99086.08
2023-03-08T19:16:44.732Z,99083.96
2023-03-08T19:19:14.662Z,99082.40
2023-03-08T19:21:46.827Z,99083.66
2023-03-08T19:24:16.845Z,99080.81
2023-03-08T19:26:47.551Z,99084.13
2023-03-08T19:29:29.712Z,99091.16
2023-03-08T19:31:59.769Z,99096.27
2023-03-08T19:34:34.333Z,99100.25
2023-03-08T19:37:05.207Z,99108.39
2023-03-08T19:39:35.058Z,99095.41
2023-03-08T19:42:05.909Z,99080.80
2023-03-08T19:44:34.347Z,99080.55
2023-03-08T19:47:04.710Z,99083.77
2023-03-08T19:49:35.937Z,99074.08
2023-03-08T19:52:05.150Z,99063.63
2023-03-08T19:54:34.123Z,99062.61
2023-03-08T19:57:03.814Z,99060.99
2023-03-08T19:59:38.663Z,99062.10
2023-03-08T20:02:08.833Z,99067.42
2023-03-08T20:04:37.122Z,99072.48
2023-03-08T20:07:07.250Z,99073.81
2023-03-08T20:09:36.173Z,99086.21
2023-03-08T20:12:05.967Z,99099.43
2023-03-08T20:14:35.045Z,99105.47
2023-03-08T20:17:05.096Z,99106.31
2023-03-08T20:19:36.920Z,99097.48
2023-03-08T20:22:05.125Z,99093.96
2023-03-08T20:24:35.497Z,99090.06
2023-03-08T20:27:05.362Z,99090.37
2023-03-08T20:29:34.560Z,99091.41
2023-03-08T20:32:03.319Z,99086.20
2023-03-08T20:34:32.629Z,99087.22
2023-03-08T20:37:00.563Z,99085.61
2023-03-08T20:39:29.092Z,99080.69
2023-03-08T20:41:58.706Z,99068.63
2023-03-08T20:44:27.773Z,99064.30
2023-03-08T20:46:55.813Z,99054.81
2023-03-08T20:49:25.452Z,99060.41
2023-03-08T20:51:54.582Z,99058.81
2023-03-08T20:54:23.285Z,99058.03
2023-03-08T20:56:51.297Z,99062.95
2023-03-08T20:59:24.200Z,99064.05
2023-03-08T21:01:55.934Z,99064.81
2023-03-08T21:04:24.310Z,99069.02
2023-03-08T21:06:55.068Z,99072.57
2023-03-08T21:09:23.131Z,99070.81
2023-03-08T21:11:52.169Z,99073.32
2023-03-08T21:14:21.578Z,99066.59
2023-03-08T21:16:51.785Z,99066.04
2023-03-08T21:19:20.468Z,99062.61
2023-03-08T21:21:48.754Z,99063.81
2023-03-08T21:24:18.949Z,99064.20
2023-03-08T21:26:46.914Z,99057.86
2023-03-08T21:29:18.058Z,99055.75
2023-03-08T21:31:50.550Z,99054.40
2023-03-08T21:34:20.051Z,99053.64
2023-03-08T21:36:48.174Z,99051.90
2023-03-08T21:39:16.335Z,99057.48
2023-03-08T21:41:46.793Z,99058.22
2023-03-08T21:44:17.560Z,99054.78
2023-03-08T21:46:46.684Z,99053.43
2023-03-08T21:49:17.795Z,99052.83
2023-03-08T21:51:45.820Z,99051.51
2023-03-08T21:54:15.418Z,99059.41
2023-03-08T21:56:43.518Z,99062.32
2023-03-08T21:59:13.034Z,99070.55
2023-03-08T22:01:41.845Z,99070.88
2023-03-08T22:04:09.968Z,99068.41
2023-03-08T22:06:37.977Z,99065.27
2023-03-08T22:09:10.101Z,99063.50
2023-03-08T22:11:38.082Z,99061.00
2023-03-08T22:14:06.349Z,99060.30
2023-03-08T22:16:37.977Z,99059.15
2023-03-08T22:19:06.114Z,99060.30
2023-03-08T22:21:34.399Z,99051.85
2023-03-08T22:24:02.921Z,99043.77
2023-03-08T22:26:31.624Z,99041.73
2023-03-08T22:28:59.854Z,99040.13
2023-03-08T22:31:29.337Z,99037.32
2023-03-08T22:33:58.711Z,99037.14
2023-03-08T22:36:30.013Z,99041.97
2023-03-08T22:38:58.195Z,99049.56
2023-03-08T22:41:26.985Z,99055.67
2023-03-08T22:43:55.053Z,99058.48
2023-03-08T22:46:26.003Z,99061.83
2023-03-08T22:48:58.515Z,99056.70
2023-03-08T22:51:28.380Z,99052.86
2023-03-08T22:53:56.777Z,99053.77
2023-03-08T22:56:29.591Z,99055.62
2023-03-08T22:58:57.879Z,99053.06
2023-03-08T23:01:26.580Z,99054.76
2023-03-08T23:03:56.843Z,99057.38
2023-03-08T23:06:28.148Z,99056.63
2023-03-08T23:08:57.206Z,99058.15
2023-03-08T23:11:29.911Z,99059.92
2023-03-08T23:13:58.111Z,99057.80
2023-03-08T23:16:26.280Z,99049.19
2023-03-08T23:18:54.566Z,99045.88
2023-03-08T23:21:23.759Z,99040.95
2023-03-08T23:23:52.382Z,99037.45
2023-03-08T23:26:21.376Z,99040.02
2023-03-08T23:28:49.587Z,99036.11
2023-03-08T23:31:20.366Z,99038.32
2023-03-08T23:33:49.102Z,99029.92
2023-03-08T23:36:18.485Z,99026.79
2023-03-08T23:38:46.504Z,99024.96
2023-03-08T23:41:14.862Z,99023.83
2023-03-08T23:43:43.030Z,99021.04
2023-03-08T23:46:20.129Z,99020.80
2023-03-08T23:48:48.343Z,99016.76
2023-03-08T23:51:18.264Z,99016.21
2023-03-08T23:53:53.824Z,99016.35
2023-03-08T23:56:31.046Z,99013.77
2023-03-08T23:59:01.370Z,99016.85
